Time;durP1;ratioP1;P1;durP2;ratioP2;P2;SDS_P1;SDS_P2;PMS_P1;PMS_P2;Temp;Humidity;BMP_temperature;BMP_pressure;BME280_temperature;BME280_humidity;BME280_pressure;Samples;Min_cycle;Max_cycle;Signal;HPM_P1;HPM_P2
2021/07/05 00:01:13;;;;;;;9.23;6.25;;;;;;;20.67;68.43;99757.75;5073210;28;20049;-69
2021/07/05 00:03:39;;;;;;;9.45;6.10;;;;;;;20.78;68.70;99793.44;5057010;28;20029;-74
2021/07/05 00:06:05;;;;;;;8.18;6.20;;;;;;;20.78;68.80;99788.19;5058102;28;20021;-73
2021/07/05 00:08:30;;;;;;;7.72;6.45;;;;;;;20.57;69.35;99779.72;5055083;28;20083;-71
2021/07/05 00:10:56;;;;;;;11.05;6.38;;;;;;;20.60;69.17;99778.81;5053319;28;20035;-72
2021/07/05 00:13:21;;;;;;;8.32;6.18;;;;;;;20.67;69.44;99789.22;5048856;28;20022;-72
2021/07/05 00:15:48;;;;;;;7.15;6.10;;;;;;;20.55;69.19;99781.53;5045886;28;20491;-73
2021/07/05 00:18:14;;;;;;;9.77;6.20;;;;;;;20.60;69.33;99791.94;5065393;28;20024;-71
2021/07/05 00:20:43;;;;;;;8.05;6.22;;;;;;;20.67;68.82;99798.81;5068349;28;20128;-70
2021/07/05 00:23:10;;;;;;;9.68;6.32;;;;;;;20.65;68.95;99777.00;5046636;28;20087;-73
2021/07/05 00:25:36;;;;;;;6.70;5.80;;;;;;;20.45;69.05;99738.84;5041058;28;20060;-74
2021/07/05 00:28:04;;;;;;;8.65;5.95;;;;;;;20.67;69.17;99778.72;5051782;28;20070;-71
2021/07/05 00:30:30;;;;;;;11.63;6.00;;;;;;;20.63;68.83;99778.78;5044649;28;21088;-73
2021/07/05 00:32:56;;;;;;;7.32;5.88;;;;;;;20.73;68.55;99796.13;5061287;28;20081;-72
2021/07/05 00:35:24;;;;;;;7.07;5.85;;;;;;;20.66;68.64;99787.47;5045821;28;20472;-70
2021/07/05 00:37:50;;;;;;;8.32;6.20;;;;;;;20.57;68.53;99774.50;5068653;28;20028;-69
2021/07/05 00:40:17;;;;;;;7.50;5.95;;;;;;;20.14;70.21;99786.47;5065225;28;20021;-71
2021/07/05 00:42:43;;;;;;;9.18;5.65;;;;;;;19.77;71.83;99775.56;5060505;28;20033;-73
2021/07/05 00:45:10;;;;;;;8.32;5.90;;;;;;;19.46;73.30;99786.38;5061738;28;20027;-69
2021/07/05 00:47:36;;;;;;;10.32;6.20;;;;;;;19.05;75.06;99776.31;5036496;28;20100;-72
2021/07/05 00:50:05;;;;;;;9.63;6.07;;;;;;;19.32;74.56;99789.16;5052037;28;20044;-75
2021/07/05 00:52:32;;;;;;;;;;;;;;;19.46;73.92;99795.09;5053335;28;20021;-70
2021/07/05 00:54:57;;;;;;;9.05;5.82;;;;;;;19.27;74.65;99796.19;5051543;28;20010;-72
2021/07/05 00:57:28;;;;;;;9.18;6.05;;;;;;;19.40;74.16;99790.81;5033225;28;20052;-73
2021/07/05 00:59:56;;;;;;;8.35;6.22;;;;;;;19.20;73.75;99743.00;5054271;28;20028;-69
2021/07/05 01:02:24;;;;;;;12.25;6.35;;;;;;;19.56;73.07;99794.13;5069658;28;20538;-72
2021/07/05 01:04:50;;;;;;;9.95;6.80;;;;;;;19.66;72.79;99780.91;5073306;28;20119;-72
2021/07/05 01:07:17;;;;;;;8.65;6.90;;;;;;;19.58;72.35;99760.06;5071666;28;20106;-70
2021/07/05 01:09:43;;;;;;;9.20;6.20;;;;;;;19.69;72.48;99784.38;5073133;28;20073;-68
2021/07/05 01:12:10;;;;;;;8.25;6.80;;;;;;;19.49;72.67;99787.22;5053481;28;20029;-70
2021/07/05 01:14:36;;;;;;;9.23;6.72;;;;;;;19.40;73.11;99788.19;5071917;28;20059;-72
2021/07/05 01:17:03;;;;;;;7.63;6.82;;;;;;;19.35;73.01;99768.16;5071177;28;20048;-70
2021/07/05 01:19:30;;;;;;;12.13;7.03;;;;;;;19.34;73.38;99782.13;5068571;28;20111;-69
2021/07/05 01:21:56;;;;;;;8.43;6.68;;;;;;;19.33;73.55;99780.41;5071955;28;20033;-69
2021/07/05 01:24:22;;;;;;;7.60;6.20;;;;;;;19.55;72.42;99781.91;5081999;28;20027;-69
2021/07/05 01:26:48;;;;;;;9.63;6.32;;;;;;;19.65;72.00;99768.69;5092509;28;20024;-68
2021/07/05 01:29:14;;;;;;;8.48;7.13;;;;;;;19.74;71.63;99771.22;5083552;28;20028;-70
2021/07/05 01:31:40;;;;;;;7.57;5.93;;;;;;;19.75;71.48;99778.22;5071865;28;20024;-70
2021/07/05 01:34:05;;;;;;;8.18;6.82;;;;;;;19.56;71.60;99757.47;5071630;28;20099;-74
2021/07/05 01:36:31;;;;;;;10.65;6.60;;;;;;;19.62;71.94;99774.84;5063107;28;20040;-69
2021/07/05 01:38:57;;;;;;;9.23;6.18;;;;;;;19.64;71.68;99767.84;5071726;28;20032;-70
2021/07/05 01:41:23;;;;;;;7.72;6.55;;;;;;;19.59;71.67;99771.41;5070551;28;20040;-69
2021/07/05 01:43:49;;;;;;;10.15;6.00;;;;;;;19.50;71.76;99775.88;5071747;28;20059;-69
2021/07/05 01:46:17;;;;;;;9.25;7.03;;;;;;;19.42;72.30;99776.84;5071591;28;20085;-71
2021/07/05 01:48:45;;;;;;;9.57;6.95;;;;;;;19.34;72.08;99766.41;5071804;28;20047;-70
2021/07/05 01:51:11;;;;;;;7.35;6.57;;;;;;;19.25;72.38;99777.84;5071520;28;20028;-69
2021/07/05 01:53:37;;;;;;;7.95;7.15;;;;;;;19.06;72.31;99756.22;5071456;28;20483;-69
2021/07/05 01:56:03;;;;;;;9.05;7.10;;;;;;;19.22;72.60;99777.91;5071305;28;20020;-70
2021/07/05 01:58:29;;;;;;;10.75;6.88;;;;;;;19.33;72.17;99786.50;5071724;28;20028;-69
2021/07/05 02:00:55;;;;;;;9.20;7.65;;;;;;;19.32;71.79;99784.75;5074138;28;20116;-69
2021/07/05 02:03:20;;;;;;;10.55;6.65;;;;;;;19.43;71.13;99781.16;5091698;28;20036;-69
2021/07/05 02:05:46;;;;;;;10.05;6.97;;;;;;;19.47;71.05;99799.44;5091683;28;20557;-69
2021/07/05 02:08:14;;;;;;;10.25;6.70;;;;;;;19.48;71.08;99795.09;5091469;28;20020;-69
2021/07/05 02:10:43;;;;;;;7.85;6.63;;;;;;;19.46;71.38;99797.69;5091511;28;20060;-69
2021/07/05 02:13:13;;;;;;;8.80;6.90;;;;;;;19.49;70.92;99802.94;5072411;28;20495;-69
2021/07/05 02:15:40;;;;;;;10.70;7.05;;;;;;;19.39;71.35;99796.91;5072271;28;20422;-70
2021/07/05 02:18:06;;;;;;;10.63;6.80;;;;;;;19.36;71.42;99801.31;5091685;28;20024;-69
2021/07/05 02:20:32;;;;;;;8.55;6.88;;;;;;;19.32;71.41;99799.59;5091403;28;20090;-70
2021/07/05 02:22:59;;;;;;;10.20;6.97;;;;;;;19.13;71.06;99757.91;5091752;28;20467;-70
2021/07/05 02:25:29;;;;;;;11.18;7.20;;;;;;;19.41;70.77;99794.28;5091254;28;20059;-69
2021/07/05 02:28:01;;;;;;;9.05;6.78;;;;;;;19.29;71.25;99797.91;5091137;28;20051;-69
2021/07/05 02:30:29;;;;;;;9.63;7.15;;;;;;;19.20;71.01;99790.13;5091309;28;20020;-69
2021/07/05 02:32:56;;;;;;;11.65;7.28;;;;;;;19.18;71.07;99804.97;5091376;28;20032;-70
2021/07/05 02:35:23;;;;;;;9.38;6.97;;;;;;;19.14;71.15;99804.13;5073130;28;20100;-69
2021/07/05 02:37:50;;;;;;;7.82;6.93;;;;;;;19.08;71.26;99802.44;5091193;28;20032;-69
2021/07/05 02:40:18;;;;;;;9.10;7.07;;;;;;;19.12;70.83;99803.28;5056435;28;20415;-69
2021/07/05 02:42:45;;;;;;;10.40;6.70;;;;;;;19.15;70.55;99812.84;5073415;28;20089;-69
2021/07/05 02:45:22;;;;;;;9.88;7.07;;;;;;;19.15;70.48;99805.00;5072894;28;20376;-69
2021/07/05 02:47:49;;;;;;;8.85;7.05;;;;;;;19.03;70.82;99798.13;5091116;28;20123;-69
2021/07/05 02:50:14;;;;;;;10.70;7.45;;;;;;;18.91;71.04;99783.41;5091125;28;20099;-69
2021/07/05 02:52:40;;;;;;;8.98;7.50;;;;;;;18.75;71.06;99772.16;5087510;28;20136;-69
2021/07/05 02:55:09;;;;;;;11.18;7.35;;;;;;;18.58;71.81;99751.38;5075323;28;20049;-69
2021/07/05 02:57:36;;;;;;;15.00;6.75;;;;;;;18.89;71.38;99809.53;5074892;28;20567;-69
2021/07/05 03:00:23;;;;;;;10.63;6.97;;;;;;;18.68;71.34;99801.84;5083786;28;20471;-72
2021/07/05 03:02:50;;;;;;;11.50;7.97;;;;;;;18.70;71.95;99800.09;5056999;28;20520;-69
2021/07/05 03:05:19;;;;;;;8.10;7.05;;;;;;;18.72;71.72;99796.59;5054841;28;20032;-70
2021/07/05 03:07:45;;;;;;;15.00;7.70;;;;;;;18.62;71.91;99794.03;5054839;28;20031;-69
2021/07/05 03:10:16;;;;;;;8.15;6.95;;;;;;;18.62;71.67;99784.47;5054669;28;20025;-69
2021/07/05 03:12:42;;;;;;;9.57;7.72;;;;;;;18.78;71.27;99792.19;5054740;28;20029;-69
2021/07/05 03:15:10;;;;;;;10.68;7.55;;;;;;;18.96;70.77;99797.31;5055093;28;20040;-69
2021/07/05 03:17:36;;;;;;;9.80;7.63;;;;;;;18.91;71.32;99804.31;5054706;28;20032;-69
2021/07/05 03:20:05;;;;;;;12.30;9.65;;;;;;;18.86;71.59;99806.94;5054354;28;20025;-69
2021/07/05 03:22:31;;;;;;;10.68;9.50;;;;;;;18.75;72.06;99806.16;5054553;28;20021;-69
2021/07/05 03:24:56;;;;;;;11.18;7.88;;;;;;;18.69;71.79;99809.69;5054530;28;20037;-69
2021/07/05 03:27:26;;;;;;;11.48;8.35;;;;;;;18.78;72.03;99811.38;5054440;28;20017;-69
2021/07/05 03:29:51;;;;;;;;;;;;;;;18.79;71.57;99809.63;5054680;28;20448;-69
2021/07/05 03:32:17;;;;;;;13.18;7.80;;;;;;;18.75;71.69;99816.59;5053810;28;20010;-68
2021/07/05 03:34:42;;;;;;;10.52;8.15;;;;;;;18.73;71.85;99800.09;5053912;28;20025;-69
2021/07/05 03:37:08;;;;;;;10.30;8.32;;;;;;;18.70;72.18;99797.47;5054101;28;20074;-69
2021/07/05 03:39:33;;;;;;;9.35;7.75;;;;;;;18.56;72.71;99784.50;5054245;28;20025;-68
2021/07/05 03:41:59;;;;;;;10.93;8.68;;;;;;;18.64;72.65;99795.78;5035207;28;20119;-69
2021/07/05 03:44:24;;;;;;;9.73;7.82;;;;;;;18.67;72.79;99795.75;5053906;28;20028;-69
2021/07/05 03:46:50;;;;;;;12.02;8.00;;;;;;;18.43;73.11;99755.84;5053821;28;20110;-69
2021/07/05 03:49:15;;;;;;;11.75;8.10;;;;;;;18.62;73.35;99796.66;5053877;28;20021;-69
2021/07/05 03:51:41;;;;;;;9.90;7.88;;;;;;;18.61;73.59;99792.31;5053957;28;20032;-69
2021/07/05 03:54:08;;;;;;;9.90;7.50;;;;;;;18.54;73.50;99773.19;5053626;28;20091;-69
2021/07/05 03:56:33;;;;;;;11.70;8.18;;;;;;;18.67;73.65;99789.66;5053633;28;20480;-69
2021/07/05 03:58:59;;;;;;;13.25;8.00;;;;;;;18.48;73.44;99741.84;5034989;28;20124;-69
2021/07/05 04:01:24;;;;;;;8.52;7.63;;;;;;;18.79;73.64;99792.19;5069480;28;20047;-72
2021/07/05 04:03:50;;;;;;;17.20;8.32;;;;;;;18.75;73.63;99798.31;5093761;28;20032;-69
2021/07/05 04:06:16;;;;;;;11.18;8.40;;;;;;;18.72;74.08;99790.50;5093724;28;20020;-69
2021/07/05 04:08:42;;;;;;;10.15;8.23;;;;;;;18.71;74.01;99786.13;5093942;28;20024;-68
2021/07/05 04:11:07;;;;;;;10.98;7.80;;;;;;;18.70;74.06;99782.63;5093848;28;20536;-69
2021/07/05 04:13:33;;;;;;;11.02;7.93;;;;;;;18.49;74.66;99754.06;5093802;28;20418;-68
2021/07/05 04:15:59;;;;;;;10.93;8.35;;;;;;;18.78;74.72;99787.84;5075758;28;20376;-70
2021/07/05 04:18:25;;;;;;;12.50;8.40;;;;;;;18.89;74.61;99795.56;5093348;28;20047;-69
2021/07/05 04:20:52;;;;;;;9.10;8.20;;;;;;;19.09;74.20;99787.63;5093806;28;20024;-69
2021/07/05 04:23:17;;;;;;;10.60;8.35;;;;;;;19.27;73.61;99785.72;5093316;28;20074;-69
2021/07/05 04:25:43;;;;;;;9.73;8.27;;;;;;;19.42;72.73;99790.78;5093397;28;20056;-69
2021/07/05 04:28:09;;;;;;;9.63;8.13;;;;;;;19.52;72.59;99788.94;5084423;28;20089;-69
2021/07/05 04:30:36;;;;;;;11.32;8.52;;;;;;;19.54;71.55;99784.56;5081890;28;20024;-69
2021/07/05 04:33:02;;;;;;;12.50;8.60;;;;;;;19.56;71.10;99788.88;5083980;28;20412;-69
2021/07/05 04:35:28;;;;;;;11.85;8.13;;;;;;;19.56;70.75;99778.41;5078568;28;20028;-69
2021/07/05 04:37:55;;;;;;;12.52;8.27;;;;;;;19.59;70.33;99753.94;5087085;28;20036;-69
2021/07/05 04:40:24;;;;;;;9.15;7.63;;;;;;;19.76;70.58;99771.22;5093160;28;20054;-69
2021/07/05 04:42:51;;;;;;;11.40;8.52;;;;;;;19.86;70.03;99772.84;5092951;28;20411;-69
2021/07/05 04:45:21;;;;;;;9.95;8.23;;;;;;;19.84;70.01;99783.34;5092766;28;20427;-69
2021/07/05 04:47:47;;;;;;;10.00;8.60;;;;;;;20.00;69.78;99777.91;5093009;28;20024;-69
2021/07/05 04:50:14;;;;;;;13.73;9.50;;;;;;;19.95;70.26;99778.00;5092871;28;20028;-69
2021/07/05 04:52:40;;;;;;;10.38;8.63;;;;;;;20.00;70.85;99770.06;5092648;28;20031;-69
2021/07/05 04:55:08;;;;;;;13.00;10.18;;;;;;;20.05;71.09;99778.75;5093084;28;20543;-70
2021/07/05 04:57:38;;;;;;;13.10;10.50;;;;;;;19.97;71.95;99770.97;5092838;28;20024;-69
2021/07/05 05:00:07;;;;;;;10.90;9.80;;;;;;;20.10;72.10;99781.28;5092730;28;20061;-69
2021/07/05 05:02:32;;;;;;;13.15;10.27;;;;;;;20.16;71.96;99792.56;5092798;28;20475;-69
2021/07/05 05:04:58;;;;;;;10.48;9.48;;;;;;;19.90;72.58;99744.88;5092744;28;20031;-71
2021/07/05 05:07:23;;;;;;;14.45;8.85;;;;;;;20.09;73.25;99790.03;5092420;28;20035;-69
2021/07/05 05:09:49;;;;;;;12.05;8.93;;;;;;;20.22;72.62;99791.59;5074678;28;20065;-69
2021/07/05 05:12:15;;;;;;;11.15;9.13;;;;;;;20.30;72.80;99773.13;5091416;28;20028;-70
2021/07/05 05:14:40;;;;;;;12.82;9.57;;;;;;;20.30;72.40;99763.53;5053698;28;20210;-70
2021/07/05 05:17:07;;;;;;;10.40;8.10;;;;;;;20.53;69.59;99784.16;5072106;28;20028;-68
2021/07/05 05:19:34;;;;;;;7.57;6.60;;;;;;;20.65;65.81;99788.34;5072217;28;20032;-69
2021/07/05 05:22:00;;;;;;;7.00;5.68;;;;;;;20.70;63.17;99785.69;5072156;28;20047;-68
2021/07/05 05:24:26;;;;;;;8.38;5.82;;;;;;;20.69;63.35;99787.41;5071889;28;20067;-69
2021/07/05 05:26:51;;;;;;;10.15;6.40;;;;;;;20.88;63.49;99792.41;5071941;28;20056;-71
2021/07/05 05:29:17;;;;;;;10.23;6.40;;;;;;;20.98;62.20;99793.13;5072283;28;20107;-68
2021/07/05 05:31:43;;;;;;;7.63;5.80;;;;;;;21.04;62.10;99787.75;5071852;28;20024;-69
2021/07/05 05:34:09;;;;;;;9.50;6.00;;;;;;;21.07;62.46;99786.84;5071837;28;20032;-69
2021/07/05 05:36:34;;;;;;;8.40;6.05;;;;;;;21.11;62.21;99784.16;5071607;28;20044;-70
2021/07/05 05:39:01;;;;;;;8.45;6.47;;;;;;;21.26;62.25;99797.88;5053645;28;20025;-69
2021/07/05 05:41:29;;;;;;;14.18;6.55;;;;;;;21.36;62.11;99799.47;5071485;28;20052;-69
2021/07/05 05:43:59;;;;;;;9.40;6.32;;;;;;;21.42;61.27;99780.97;5071756;28;20032;-69
2021/07/05 05:46:28;;;;;;;7.95;6.40;;;;;;;21.69;61.75;99788.38;5071829;28;20028;-69
2021/07/05 05:48:54;;;;;;;9.05;6.50;;;;;;;21.67;60.89;99756.00;5077550;28;20024;-69
2021/07/05 05:51:19;;;;;;;7.90;6.45;;;;;;;21.88;58.61;99767.84;5091791;28;20053;-69
2021/07/05 05:53:45;;;;;;;10.95;5.93;;;;;;;22.03;58.70;99780.66;5049093;28;20189;-69
2021/07/05 05:56:13;;;;;;;7.45;6.45;;;;;;;21.77;58.94;99740.03;5049109;28;20107;-70
2021/07/05 05:58:41;;;;;;;14.93;6.20;;;;;;;22.18;59.30;99771.59;5049216;28;20076;-69
2021/07/05 06:01:07;;;;;;;10.20;6.75;;;;;;;22.23;58.51;99777.59;5049033;28;20071;-69
2021/07/05 06:03:34;;;;;;;7.20;5.70;;;;;;;22.20;57.63;99776.81;5049048;28;20491;-69
2021/07/05 06:06:00;;;;;;;8.38;6.07;;;;;;;22.23;57.26;99768.84;5048965;28;20095;-71
2021/07/05 06:08:26;;;;;;;8.18;5.97;;;;;;;22.36;57.01;99761.56;5048732;28;20581;-69
2021/07/05 06:10:52;;;;;;;10.10;6.53;;;;;;;22.49;57.26;99757.75;5048871;28;20157;-69
2021/07/05 06:13:18;;;;;;;9.70;6.45;;;;;;;22.57;57.60;99766.31;5032302;28;20036;-69
2021/07/05 06:15:44;;;;;;;7.93;6.47;;;;;;;22.67;56.92;99759.09;5048935;28;20029;-69
2021/07/05 06:18:09;;;;;;;12.35;6.30;;;;;;;22.83;57.12;99763.94;5048705;28;20041;-70
2021/07/05 06:20:35;;;;;;;6.90;5.90;;;;;;;22.90;58.56;99765.53;5048956;28;20029;-73
2021/07/05 06:23:01;;;;;;;7.30;6.40;;;;;;;23.01;56.18;99760.84;5048690;28;20051;-69
2021/07/05 06:25:27;;;;;;;8.55;6.00;;;;;;;23.06;55.48;99766.88;5048100;28;20079;-70
2021/07/05 06:27:53;;;;;;;8.50;5.82;;;;;;;23.16;55.18;99750.88;5048279;28;20032;-69
2021/07/05 06:30:19;;;;;;;7.93;6.05;;;;;;;23.13;55.52;99725.47;5054658;28;20044;-69
2021/07/05 06:32:45;;;;;;;8.65;5.95;;;;;;;23.37;55.79;99745.00;5091336;28;20032;-69
2021/07/05 06:35:12;;;;;;;9.73;6.13;;;;;;;23.41;56.20;99744.03;5087714;28;20027;-69
2021/07/05 06:37:38;;;;;;;8.52;7.30;;;;;;;23.43;56.52;99734.31;5071036;28;20029;-69
2021/07/05 06:40:06;;;;;;;6.43;5.82;;;;;;;23.55;60.11;99735.75;5053040;28;20369;-69
2021/07/05 06:42:33;;;;;;;8.75;6.28;;;;;;;23.56;56.40;99734.84;5070900;28;20454;-69
2021/07/05 06:44:59;;;;;;;8.75;6.68;;;;;;;23.65;59.67;99731.09;5070857;28;20112;-72
2021/07/05 06:47:24;;;;;;;8.02;6.68;;;;;;;23.44;56.35;99687.78;5070607;28;20131;-70
2021/07/05 06:49:50;;;;;;;8.38;6.07;;;;;;;23.75;55.42;99723.75;5071042;28;20017;-69
2021/07/05 06:52:15;;;;;;;6.90;5.90;;;;;;;23.90;57.63;99725.06;5070694;28;20090;-73
2021/07/05 06:54:41;;;;;;;9.32;6.60;;;;;;;23.80;56.10;99699.91;5071352;28;20021;-68
2021/07/05 06:57:06;;;;;;;8.60;6.15;;;;;;;24.08;55.30;99725.47;5070745;28;20479;-70
2021/07/05 06:59:34;;;;;;;7.93;5.97;;;;;;;24.12;56.40;99722.66;5070694;28;20028;-69
2021/07/05 07:01:59;;;;;;;8.32;5.65;;;;;;;24.22;55.18;99717.97;5061020;28;20045;-69
2021/07/05 07:04:25;;;;;;;7.43;6.03;;;;;;;24.30;54.37;99717.72;5050563;28;20474;-69
2021/07/05 07:06:50;;;;;;;7.55;5.50;;;;;;;24.46;51.07;99718.09;5050666;28;20025;-72
2021/07/05 07:09:17;;;;;;;8.80;5.70;;;;;;;24.65;51.86;99716.63;5050944;28;20055;-69
2021/07/05 07:11:42;;;;;;;9.18;6.65;;;;;;;24.88;52.53;99712.31;5050647;28;20537;-71
2021/07/05 07:14:10;;;;;;;7.20;5.90;;;;;;;24.95;52.80;99712.97;5050909;28;20029;-69
2021/07/05 07:16:42;;;;;;;7.78;5.82;;;;;;;24.70;53.27;99667.16;5048027;28;20025;-68
2021/07/05 07:19:16;;;;;;;9.43;7.13;;;;;;;25.10;50.98;99701.88;5049948;28;20028;-72
2021/07/05 07:21:43;;;;;;;8.10;6.47;;;;;;;25.29;50.05;99685.38;5048297;28;20017;-70
2021/07/05 07:24:09;;;;;;;11.85;7.90;;;;;;;25.28;49.10;99654.56;5050491;28;20025;-69
2021/07/05 07:26:34;;;;;;;9.45;6.57;;;;;;;25.25;50.22;99663.47;5050032;28;20021;-71
2021/07/05 07:29:00;;;;;;;8.57;6.10;;;;;;;25.43;51.10;99692.81;5050046;28;20051;-69
2021/07/05 07:31:25;;;;;;;6.53;5.68;;;;;;;25.43;49.86;99696.31;5050043;28;20032;-72
2021/07/05 07:33:51;;;;;;;8.80;6.55;;;;;;;25.61;49.20;99697.41;5040581;28;20029;-69
2021/07/05 07:36:17;;;;;;;7.72;5.15;;;;;;;25.73;48.22;99695.22;5049673;28;20032;-72
2021/07/05 07:38:47;;;;;;;8.30;5.57;;;;;;;25.93;44.78;99695.31;5052233;28;20029;-70
2021/07/05 07:41:16;;;;;;;11.90;6.28;;;;;;;25.86;45.57;99699.13;5053385;28;20024;-69
2021/07/05 07:43:41;;;;;;;17.27;11.82;;;;;;;26.05;45.89;99701.03;5052872;28;20033;-69
2021/07/05 07:46:07;;;;;;;7.35;5.90;;;;;;;26.09;44.82;99698.22;5053983;28;20043;-69
2021/07/05 07:48:32;;;;;;;7.47;5.05;;;;;;;26.08;45.53;99693.00;5048343;28;20114;-69
2021/07/05 07:50:58;;;;;;;6.72;5.03;;;;;;;26.09;47.87;99692.94;5053265;28;20480;-69
2021/07/05 07:53:23;;;;;;;17.23;5.90;;;;;;;26.18;45.06;99686.41;5053576;28;20024;-70
2021/07/05 07:55:49;;;;;;;12.32;5.28;;;;;;;26.30;44.99;99685.06;5053505;28;20044;-70
2021/07/05 07:58:14;;;;;;;7.28;5.95;;;;;;;26.57;45.28;99693.66;5053012;28;20548;-69
2021/07/05 08:00:40;;;;;;;7.18;5.50;;;;;;;26.70;44.69;99686.03;5052806;28;20025;-72
2021/07/05 08:03:05;;;;;;;7.20;4.65;;;;;;;26.82;43.50;99684.72;5076386;28;20071;-68
2021/07/05 08:05:31;;;;;;;6.35;4.95;;;;;;;26.95;43.02;99690.31;5074283;28;20426;-70
2021/07/05 08:07:57;;;;;;;8.73;4.82;;;;;;;27.06;42.26;99679.25;5072986;28;20036;-67
2021/07/05 08:10:22;;;;;;;12.90;10.73;;;;;;;27.11;43.55;99682.56;5072986;28;20017;-68
2021/07/05 08:12:48;;;;;;;6.55;5.15;;;;;;;27.15;42.72;99684.16;5072647;28;20087;-71
2021/07/05 08:15:15;;;;;;;8.05;5.00;;;;;;;27.15;41.56;99660.28;5072180;28;20031;-71
2021/07/05 08:17:44;;;;;;;8.93;4.95;;;;;;;27.26;42.20;99681.03;5070906;28;20043;-71
2021/07/05 08:20:10;;;;;;;8.48;5.20;;;;;;;27.31;42.79;99679.03;5073055;28;20104;-68
2021/07/05 08:22:37;;;;;;;6.45;4.93;;;;;;;27.33;43.80;99679.81;5072736;28;20029;-70
2021/07/05 08:25:04;;;;;;;5.85;5.25;;;;;;;27.36;43.13;99674.38;5072758;28;20036;-71
2021/07/05 08:27:29;;;;;;;10.10;5.20;;;;;;;27.42;42.63;99667.97;5072821;28;20033;-72
2021/07/05 08:29:56;;;;;;;9.15;5.15;;;;;;;27.53;47.17;99673.63;5062297;28;20406;-73
2021/07/05 08:32:22;;;;;;;7.05;4.55;;;;;;;27.60;40.36;99677.72;5072527;28;20098;-73
2021/07/05 08:34:47;;;;;;;5.97;4.47;;;;;;;27.57;40.36;99675.19;5072324;28;20496;-72
2021/07/05 08:37:13;;;;;;;7.38;4.65;;;;;;;27.70;39.24;99677.28;5072317;28;20032;-69
2021/07/05 08:39:39;;;;;;;6.45;4.10;;;;;;;27.68;38.63;99665.91;5077142;28;20475;-71
2021/07/05 08:42:06;;;;;;;6.97;4.50;;;;;;;27.82;38.79;99675.84;5072417;28;20067;-70
2021/07/05 08:44:32;;;;;;;4.80;4.07;;;;;;;27.77;37.24;99676.06;5070830;28;20040;-72
2021/07/05 08:46:59;;;;;;;6.88;4.15;;;;;;;27.80;37.11;99677.72;5071870;28;20050;-72
2021/07/05 08:49:24;;;;;;;5.72;4.32;;;;;;;27.82;40.67;99667.91;5071243;28;20495;-70
2021/07/05 08:51:54;;;;;;;7.53;4.72;;;;;;;27.88;38.57;99670.25;5071964;28;20028;-72
2021/07/05 08:54:20;;;;;;;5.72;4.53;;;;;;;27.82;40.14;99674.06;5070284;28;20037;-70
2021/07/05 08:56:45;;;;;;;5.10;4.10;;;;;;;27.89;41.25;99664.03;5071544;28;20471;-74
2021/07/05 08:59:14;;;;;;;6.38;4.30;;;;;;;27.96;42.73;99660.13;5074281;28;20475;-71
2021/07/05 09:01:40;;;;;;;5.82;3.90;;;;;;;27.98;39.92;99652.97;5054822;28;20157;-75
2021/07/05 09:04:06;;;;;;;5.00;4.10;;;;;;;28.00;39.83;99642.25;5052228;28;20028;-74
2021/07/05 09:06:33;;;;;;;6.90;3.67;;;;;;;28.25;38.62;99660.50;5051988;28;20028;-72
2021/07/05 09:08:58;;;;;;;4.18;3.72;;;;;;;28.34;35.39;99653.91;5052130;28;20021;-76
2021/07/05 09:11:48;;;;;;;6.57;4.50;;;;;;;28.13;35.77;99616.88;5050935;28;20029;-72
2021/07/05 09:14:17;;;;;;;6.00;4.13;;;;;;;28.48;37.40;99650.56;5050133;28;20029;-75
2021/07/05 09:16:44;;;;;;;4.37;3.93;;;;;;;28.43;35.39;99648.13;5042239;28;20028;-76
2021/07/05 09:19:14;;;;;;;4.78;4.00;;;;;;;28.54;35.64;99642.28;5052211;28;20025;-75
2021/07/05 09:21:39;;;;;;;9.30;4.10;;;;;;;28.73;34.48;99642.22;5052006;28;20068;-74
2021/07/05 09:24:07;;;;;;;7.78;3.90;;;;;;;28.60;33.46;99606.56;5051634;28;20064;-70
2021/07/05 09:26:39;;;;;;;4.40;3.58;;;;;;;28.62;36.49;99612.69;5051448;28;20067;-79
2021/07/05 09:29:06;;;;;;;6.35;4.60;;;;;;;28.82;36.44;99638.22;5051794;28;20017;-73
2021/07/05 09:31:37;;;;;;;6.32;4.05;;;;;;;28.74;36.48;99641.28;5043906;28;20025;-75
2021/07/05 09:34:12;;;;;;;6.90;4.03;;;;;;;28.81;37.50;99637.38;5048494;28;20499;-78
2021/07/05 09:36:38;;;;;;;5.10;4.18;;;;;;;28.97;34.94;99625.94;5052660;28;20025;-82
2021/07/05 09:39:18;;;;;;;8.52;3.88;;;;;;;29.11;35.50;99623.41;5052330;28;20024;-78
2021/07/05 09:41:44;;;;;;;6.68;4.18;;;;;;;29.19;34.76;99630.97;5053343;28;20141;-73
2021/07/05 09:44:19;;;;;;;8.82;4.25;;;;;;;29.39;34.08;99621.94;5054895;28;20029;-75
2021/07/05 09:46:47;;;;;;;6.28;3.72;;;;;;;29.60;33.46;99632.31;5052517;28;20404;-72
2021/07/05 09:49:20;;;;;;;5.40;3.75;;;;;;;29.63;32.59;99627.66;5048631;28;20037;-72
2021/07/05 09:52:31;;;;;;;5.10;3.80;;;;;;;29.40;32.95;99596.19;5046298;28;20028;-75
2021/07/05 09:54:58;;;;;;;6.47;4.47;;;;;;;29.53;32.98;99634.44;4990512;28;20046;-73
2021/07/05 09:57:39;;;;;;;7.35;4.32;;;;;;;29.61;33.17;99628.69;4990339;28;20039;-80
2021/07/05 10:00:07;;;;;;;5.82;4.03;;;;;;;29.72;33.51;99623.66;4972524;28;20157;-74
2021/07/05 10:02:36;;;;;;;5.85;4.00;;;;;;;29.74;34.65;99624.41;4990369;28;20132;-73
2021/07/05 10:05:43;;;;;;;6.70;4.40;;;;;;;29.66;34.26;99614.22;4989402;28;20034;-85
2021/07/05 10:08:10;;;;;;;5.63;3.92;;;;;;;29.56;33.97;99585.56;4933474;29;20126;-74
2021/07/05 10:10:40;;;;;;;8.38;3.70;;;;;;;30.01;38.77;99624.66;4947954;29;20058;-75
2021/07/05 10:13:10;;;;;;;5.05;3.83;;;;;;;30.24;34.53;99613.63;4949122;29;20027;-75
2021/07/05 10:15:38;;;;;;;4.80;3.90;;;;;;;30.44;34.32;99597.31;4948234;29;20035;-79
2021/07/05 10:18:05;;;;;;;5.28;4.30;;;;;;;30.61;36.55;99600.81;4947971;29;20068;-79
2021/07/05 10:20:38;;;;;;;4.75;3.97;;;;;;;30.49;34.81;99581.09;4949333;29;20130;-73
2021/07/05 10:23:07;;;;;;;4.03;3.58;;;;;;;30.48;31.83;99574.94;4949542;28;20035;-74
2021/07/05 10:25:36;;;;;;;7.00;4.20;;;;;;;30.43;36.31;99594.75;4948896;28;20035;-76
2021/07/05 10:28:03;;;;;;;7.65;4.40;;;;;;;30.38;34.39;99595.06;4947860;29;20102;-73
2021/07/05 10:30:50;;;;;;;4.53;3.80;;;;;;;30.80;34.19;99584.56;4949269;29;20035;-75
2021/07/05 10:33:18;;;;;;;5.90;3.88;;;;;;;31.11;31.04;99572.88;4989639;28;20506;-72
2021/07/05 10:35:50;;;;;;;4.70;3.90;;;;;;;31.43;32.07;99571.78;4990365;28;20097;-72
2021/07/05 10:38:37;;;;;;;4.50;3.85;;;;;;;31.25;33.79;99579.13;4991474;28;20082;-74
2021/07/05 10:41:12;;;;;;;4.72;3.83;;;;;;;31.08;33.05;99564.19;4967236;28;20050;-74
2021/07/05 10:43:53;;;;;;;4.78;3.33;;;;;;;31.34;30.10;99540.34;4969990;28;20508;-74
2021/07/05 10:46:52;;;;;;;4.60;3.55;;;;;;;31.33;30.70;99566.19;4969236;28;20054;-71
2021/07/05 10:52:06;;;;;;;5.28;3.70;;;;;;;31.27;30.34;99572.75;4962779;28;20537;-71
2021/07/05 10:54:46;;;;;;;4.30;3.60;;;;;;;31.59;28.38;99572.50;4952855;28;20109;-73
2021/07/05 10:57:14;;;;;;;5.28;3.78;;;;;;;31.69;28.18;99571.91;4963754;28;20129;-75
2021/07/05 10:59:41;;;;;;;3.97;3.28;;;;;;;31.88;28.66;99552.88;4969016;28;20054;-72
2021/07/05 11:02:35;;;;;;;5.97;3.80;;;;;;;32.19;28.85;99557.03;4978694;28;20050;-74
2021/07/05 11:05:01;;;;;;;5.80;4.10;;;;;;;32.55;33.19;99552.78;5003181;28;20048;-73
2021/07/05 11:07:45;;;;;;;5.65;3.88;;;;;;;32.68;30.96;99554.59;5008310;28;20579;-70
2021/07/05 11:10:24;;;;;;;6.07;3.85;;;;;;;32.30;30.91;99540.28;4998860;28;20026;-78
2021/07/05 11:13:04;;;;;;;6.37;4.17;;;;;;;31.83;31.55;99514.94;4992253;28;20050;-73
2021/07/05 11:15:48;;;;;;;4.60;3.75;;;;;;;31.51;30.39;99553.44;4996937;28;20117;-77
2021/07/05 11:18:45;;;;;;;7.50;4.20;;;;;;;31.60;31.65;99554.66;5010088;28;20038;-73
2021/07/05 11:21:23;;;;;;;4.68;3.47;;;;;;;31.90;29.90;99554.50;5024759;28;20071;-79
2021/07/05 11:24:09;;;;;;;40.70;6.25;;;;;;;32.30;29.99;99545.63;5032548;28;20049;-77
2021/07/05 11:26:37;;;;;;;7.22;4.20;;;;;;;32.34;28.38;99544.44;4986485;28;20035;-77
2021/07/05 11:29:15;;;;;;;8.70;4.00;;;;;;;32.58;29.88;99538.34;4965771;28;20073;-79
2021/07/05 11:32:01;;;;;;;5.05;3.70;;;;;;;32.36;27.48;99512.28;4978349;28;20065;-83
2021/07/05 11:34:32;;;;;;;7.25;3.60;;;;;;;32.52;28.72;99522.75;4997864;28;20039;-71
2021/07/05 11:37:28;;;;;;;5.10;3.70;;;;;;;32.93;27.42;99535.03;4995440;28;20050;-80
2021/07/05 11:39:54;;;;;;;4.63;3.90;;;;;;;33.21;30.20;99527.69;4990597;28;20563;-79